createdAt,value
2023-04-15T00:02:02.207Z,6.60
2023-04-15T00:04:30.520Z,6.60
2023-04-15T00:06:58.533Z,6.60
2023-04-15T00:09:26.542Z,6.60
2023-04-15T00:11:54.988Z,6.60
2023-04-15T00:14:23.388Z,6.50
2023-04-15T00:16:56.829Z,6.60
2023-04-15T00:19:25.943Z,6.60
2023-04-15T00:21:54.003Z,6.60
2023-04-15T00:24:22.093Z,6.60
2023-04-15T00:26:50.439Z,6.60
2023-04-15T00:29:18.522Z,6.70
2023-04-15T00:31:46.949Z,6.60
2023-04-15T00:34:15.363Z,6.60
2023-04-15T00:36:44.788Z,6.60
2023-04-15T00:39:13.488Z,6.70
2023-04-15T00:41:44.889Z,6.70
2023-04-15T00:44:13.580Z,6.80
2023-04-15T00:46:41.763Z,6.90
2023-04-15T00:49:09.921Z,6.90
2023-04-15T00:51:38.434Z,6.90
2023-04-15T00:54:09.144Z,7.00
2023-04-15T00:56:38.290Z,7.00
2023-04-15T00:59:07.697Z,7.00
2023-04-15T01:01:36.918Z,7.00
2023-04-15T01:04:05.537Z,7.00
2023-04-15T01:06:36.593Z,7.00
2023-04-15T01:09:12.339Z,7.00
2023-04-15T01:11:41.169Z,7.00
2023-04-15T01:14:10.384Z,7.00
2023-04-15T01:16:41.139Z,7.00
2023-04-15T01:19:11.976Z,6.90
2023-04-15T01:21:41.069Z,6.90
2023-04-15T01:24:11.019Z,7.00
2023-04-15T01:26:42.563Z,7.00
2023-04-15T01:29:12.284Z,7.00
2023-04-15T01:31:40.599Z,7.00
2023-04-15T01:34:08.760Z,7.10
2023-04-15T01:36:38.096Z,7.10
2023-04-15T01:39:07.015Z,7.10
2023-04-15T01:41:35.013Z,7.10
2023-04-15T01:44:03.291Z,7.10
2023-04-15T01:46:31.791Z,7.10
2023-04-15T01:49:02.285Z,7.10
2023-04-15T01:51:32.223Z,7.10
2023-04-15T01:54:00.270Z,7.10
2023-04-15T01:56:28.384Z,7.10
2023-04-15T01:58:56.432Z,7.10
2023-04-15T02:01:24.609Z,7.10
2023-04-15T02:03:52.632Z,7.00
2023-04-15T02:06:20.855Z,7.10
2023-04-15T02:08:49.495Z,7.10
2023-04-15T02:11:17.582Z,7.10
2023-04-15T02:13:45.652Z,7.10
2023-04-15T02:16:22.793Z,7.00
2023-04-15T02:18:50.994Z,7.00
2023-04-15T02:21:22.661Z,7.00
2023-04-15T02:23:53.981Z,7.00
2023-04-15T02:26:23.655Z,7.00
2023-04-15T02:28:52.733Z,7.00
2023-04-15T02:31:20.984Z,7.00
2023-04-15T02:33:49.030Z,7.00
2023-04-15T02:36:17.132Z,6.90
2023-04-15T02:38:45.501Z,6.90
2023-04-15T02:41:15.598Z,6.90
2023-04-15T02:43:45.501Z,6.90
2023-04-15T02:46:15.947Z,6.90
2023-04-15T02:48:44.163Z,7.00
2023-04-15T02:51:12.889Z,7.00
2023-04-15T02:53:41.303Z,7.00
2023-04-15T02:56:09.716Z,7.00
2023-04-15T02:58:37.870Z,7.00
2023-04-15T03:01:06.204Z,7.00
2023-04-15T03:03:34.446Z,7.00
2023-04-15T03:06:02.673Z,7.00
2023-04-15T03:08:30.898Z,7.00
2023-04-15T03:11:01.962Z,7.00
2023-04-15T03:13:30.213Z,7.00
2023-04-15T03:16:00.332Z,7.00
2023-04-15T03:18:30.601Z,7.00
2023-04-15T03:21:02.774Z,6.90
2023-04-15T03:23:33.354Z,7.00
2023-04-15T03:26:04.937Z,7.00
2023-04-15T03:28:34.689Z,7.00
2023-04-15T03:31:03.694Z,7.00
2023-04-15T03:33:36.439Z,7.00
2023-04-15T03:36:04.577Z,7.00
2023-04-15T03:38:35.449Z,7.00
2023-04-15T03:41:03.616Z,6.90
2023-04-15T03:43:31.664Z,6.90
2023-04-15T03:46:01.452Z,6.90
2023-04-15T03:48:30.017Z,6.90
2023-04-15T03:50:58.125Z,6.90
2023-04-15T03:53:26.267Z,6.90
2023-04-15T03:55:54.222Z,6.90
2023-04-15T03:58:25.330Z,6.90
2023-04-15T04:00:53.785Z,6.90
2023-04-15T04:03:22.626Z,6.90
2023-04-15T04:05:50.994Z,6.90
2023-04-15T04:08:20.781Z,6.90
2023-04-15T04:10:49.102Z,6.90
2023-04-15T04:13:17.176Z,6.90
2023-04-15T04:15:45.322Z,6.90
2023-04-15T04:18:13.785Z,6.90
2023-04-15T04:20:41.879Z,6.90
2023-04-15T04:23:09.910Z,6.90
2023-04-15T04:25:37.972Z,6.90
2023-04-15T04:28:06.046Z,6.90
2023-04-15T04:30:34.167Z,6.90
2023-04-15T04:33:02.539Z,7.00
2023-04-15T04:35:30.609Z,6.90
2023-04-15T04:37:58.633Z,7.00
2023-04-15T04:40:27.138Z,7.00
2023-04-15T04:42:55.555Z,7.00
2023-04-15T04:45:24.060Z,7.00
2023-04-15T04:47:52.165Z,7.00
2023-04-15T04:50:20.248Z,7.00
2023-04-15T04:52:48.704Z,7.00
2023-04-15T04:55:16.777Z,7.10
2023-04-15T04:57:44.856Z,7.00
2023-04-15T05:00:13.887Z,7.00
2023-04-15T05:02:43.784Z,7.00
2023-04-15T05:05:13.061Z,7.00
2023-04-15T05:07:41.105Z,7.00
2023-04-15T05:10:09.518Z,7.10
2023-04-15T05:12:38.759Z,7.10
2023-04-15T05:15:07.434Z,7.10
2023-04-15T05:17:36.624Z,7.10
2023-04-15T05:20:07.531Z,7.10
2023-04-15T05:22:35.708Z,7.20
2023-04-15T05:25:03.702Z,7.10
2023-04-15T05:27:35.077Z,7.10
2023-04-15T05:30:03.196Z,7.10
2023-04-15T05:32:31.300Z,7.20
2023-04-15T05:34:59.400Z,7.20
2023-04-15T05:37:27.646Z,7.30
2023-04-15T05:39:56.253Z,7.30
2023-04-15T05:42:24.254Z,7.40
2023-04-15T05:44:52.530Z,7.40
2023-04-15T05:47:20.557Z,7.40
2023-04-15T05:49:48.620Z,7.50
2023-04-15T05:52:16.845Z,7.50
2023-04-15T05:54:44.879Z,7.60
2023-04-15T05:57:15.217Z,7.60
2023-04-15T05:59:43.938Z,7.60
2023-04-15T06:02:11.993Z,7.60
2023-04-15T06:04:40.766Z,7.70
2023-04-15T06:07:08.861Z,7.70
2023-04-15T06:09:37.504Z,7.70
2023-04-15T06:12:05.680Z,7.80
2023-04-15T06:14:33.748Z,7.70
2023-04-15T06:17:01.855Z,7.80
2023-04-15T06:19:29.839Z,7.90
2023-04-15T06:21:57.861Z,7.90
2023-04-15T06:24:25.920Z,7.90
2023-04-15T06:26:54.141Z,8.00
2023-04-15T06:29:23.671Z,8.00
2023-04-15T06:31:51.739Z,8.10
2023-04-15T06:34:22.939Z,8.10
2023-04-15T06:36:50.932Z,8.20
2023-04-15T06:39:18.901Z,8.30
2023-04-15T06:41:47.000Z,8.20
2023-04-15T06:44:15.048Z,8.10
2023-04-15T06:46:44.456Z,8.10
2023-04-15T06:49:12.738Z,8.10
2023-04-15T06:51:40.762Z,8.20
2023-04-15T06:54:08.731Z,8.30
2023-04-15T06:56:37.130Z,8.30
2023-04-15T06:59:05.168Z,8.30
2023-04-15T07:01:33.244Z,8.40
2023-04-15T07:04:01.403Z,8.40
2023-04-15T07:06:29.552Z,8.50
2023-04-15T07:08:57.554Z,8.50
2023-04-15T07:11:27.230Z,8.60
2023-04-15T07:13:55.300Z,8.60
2023-04-15T07:16:23.524Z,8.70
2023-04-15T07:18:51.602Z,8.70
2023-04-15T07:21:25.680Z,8.80
2023-04-15T07:23:56.107Z,8.90
2023-04-15T07:26:24.835Z,8.90
2023-04-15T07:28:52.860Z,8.90
2023-04-15T07:31:20.956Z,8.90
2023-04-15T07:33:48.977Z,8.90
2023-04-15T07:36:17.020Z,9.00
2023-04-15T07:38:45.113Z,9.00
2023-04-15T07:41:13.120Z,9.10
2023-04-15T07:43:41.154Z,9.20
2023-04-15T07:46:09.622Z,9.30
2023-04-15T07:48:37.869Z,9.30
2023-04-15T07:51:06.035Z,9.30
2023-04-15T07:53:34.584Z,9.40
2023-04-15T07:56:02.658Z,9.50
2023-04-15T07:58:30.665Z,9.50
2023-04-15T08:00:59.413Z,9.50
2023-04-15T08:03:27.564Z,9.50
2023-04-15T08:05:55.810Z,9.40
2023-04-15T08:08:23.837Z,9.50
2023-04-15T08:10:52.824Z,9.40
2023-04-15T08:13:21.055Z,9.30
2023-04-15T08:15:54.922Z,9.20
2023-04-15T08:18:23.104Z,9.10
2023-04-15T08:20:51.110Z,9.10
2023-04-15T08:23:19.865Z,9.10
2023-04-15T08:25:47.890Z,9.00
2023-04-15T08:28:17.245Z,9.00
2023-04-15T08:30:45.281Z,8.90
2023-04-15T08:33:13.360Z,8.80
2023-04-15T08:35:41.388Z,8.80
2023-04-15T08:38:09.532Z,8.70
2023-04-15T08:40:42.334Z,8.80
2023-04-15T08:43:11.915Z,8.70
2023-04-15T08:45:40.669Z,8.80
2023-04-15T08:48:13.640Z,8.80
2023-04-15T08:50:43.324Z,8.80
2023-04-15T08:53:12.040Z,8.70
2023-04-15T08:55:47.380Z,8.80
2023-04-15T08:58:17.550Z,8.80
2023-04-15T09:00:45.558Z,8.90
2023-04-15T09:03:13.843Z,8.90
2023-04-15T09:05:42.337Z,8.90
2023-04-15T09:08:10.741Z,8.70
2023-04-15T09:10:43.311Z,8.80
2023-04-15T09:13:11.927Z,8.90
2023-04-15T09:15:40.336Z,8.90
2023-04-15T09:18:08.637Z,9.00
2023-04-15T09:20:41.340Z,9.00
2023-04-15T09:23:13.829Z,9.20
2023-04-15T09:25:43.865Z,9.20
2023-04-15T09:28:12.606Z,9.10
2023-04-15T09:30:40.657Z,9.10
2023-04-15T09:33:12.182Z,9.10
2023-04-15T09:35:40.232Z,9.00
2023-04-15T09:38:09.312Z,9.00
2023-04-15T09:40:38.526Z,8.90
2023-04-15T09:43:07.406Z,8.90
2023-04-15T09:45:36.224Z,9.00
2023-04-15T09:48:25.841Z,9.00
2023-04-15T09:50:57.319Z,9.00
2023-04-15T09:53:26.645Z,9.00
2023-04-15T09:55:56.076Z,9.10
2023-04-15T09:58:24.882Z,9.20
2023-04-15T10:00:53.713Z,9.20
2023-04-15T10:03:23.220Z,9.20
2023-04-15T10:05:52.525Z,9.20
2023-04-15T10:08:21.498Z,9.10
2023-04-15T10:10:50.107Z,9.00
2023-04-15T10:13:38.471Z,8.80
2023-04-15T10:16:08.700Z,8.70
2023-04-15T10:18:39.322Z,8.60
2023-04-15T10:21:08.048Z,8.50
2023-04-15T10:23:36.254Z,8.40
2023-04-15T10:26:05.553Z,8.40
2023-04-15T10:28:33.603Z,8.20
2023-04-15T10:31:02.171Z,8.40
2023-04-15T10:33:30.564Z,8.30
2023-04-15T10:35:59.037Z,8.30
2023-04-15T10:38:33.125Z,8.20
2023-04-15T10:41:32.521Z,8.10
2023-04-15T10:44:04.831Z,8.20
2023-04-15T10:46:40.506Z,8.30
2023-04-15T10:49:09.631Z,8.40
2023-04-15T10:51:42.811Z,8.50
2023-04-15T10:54:15.377Z,8.70
2023-04-15T10:56:46.796Z,9.00
2023-04-15T10:59:14.873Z,9.30
2023-04-15T11:02:01.318Z,9.50
2023-04-15T11:04:48.374Z,9.70
2023-04-15T11:07:16.484Z,9.70
2023-04-15T11:09:44.468Z,9.90
2023-04-15T11:12:13.262Z,9.90
2023-04-15T11:14:41.984Z,10.00
2023-04-15T11:17:10.056Z,9.70
2023-04-15T11:19:41.328Z,9.50
2023-04-15T11:22:12.741Z,9.40
2023-04-15T11:24:51.908Z,9.30
2023-04-15T11:27:30.518Z,9.20
2023-04-15T11:30:04.509Z,9.00
2023-04-15T11:32:36.386Z,9.10
2023-04-15T11:35:07.443Z,9.10
2023-04-15T11:37:48.092Z,9.20
2023-04-15T11:40:18.905Z,9.40
2023-04-15T11:43:07.929Z,9.60
2023-04-15T11:45:37.049Z,9.70
2023-04-15T11:48:12.607Z,9.70
2023-04-15T11:50:44.404Z,9.80
2023-04-15T11:53:18.846Z,9.80
2023-04-15T11:56:12.948Z,9.80
2023-04-15T11:58:41.368Z,9.70
2023-04-15T12:01:09.403Z,9.60
2023-04-15T12:03:37.736Z,9.50
2023-04-15T12:06:09.060Z,9.50
2023-04-15T12:08:54.539Z,9.50
2023-04-15T12:11:34.710Z,9.40
2023-04-15T12:14:15.100Z,9.30
2023-04-15T12:16:48.879Z,9.20
2023-04-15T12:19:30.674Z,9.20
2023-04-15T12:22:00.902Z,9.20
2023-04-15T12:24:29.639Z,9.10
2023-04-15T12:26:59.058Z,9.10
2023-04-15T12:29:31.654Z,9.20
2023-04-15T12:32:13.914Z,9.20
2023-04-15T12:34:43.220Z,9.30
2023-04-15T12:37:13.485Z,9.30
2023-04-15T12:39:42.552Z,9.40
2023-04-15T12:42:11.050Z,9.50
2023-04-15T12:44:39.639Z,9.40
2023-04-15T12:47:08.361Z,9.50
2023-04-15T12:49:36.611Z,9.40
2023-04-15T12:52:09.302Z,9.50
2023-04-15T12:54:41.504Z,9.40
2023-04-15T12:57:09.564Z,9.40
2023-04-15T12:59:37.833Z,9.40
2023-04-15T13:02:06.215Z,9.50
2023-04-15T13:04:34.468Z,9.50
2023-04-15T13:07:03.316Z,9.50
2023-04-15T13:09:31.338Z,9.60
2023-04-15T13:11:59.557Z,9.60
2023-04-15T13:14:28.381Z,9.70
2023-04-15T13:16:56.421Z,9.70
2023-04-15T13:19:24.416Z,9.70
2023-04-15T13:21:52.705Z,9.80
2023-04-15T13:24:20.737Z,9.70
2023-04-15T13:26:50.428Z,9.70
2023-04-15T13:29:18.612Z,9.70
2023-04-15T13:31:46.673Z,9.70
2023-04-15T13:34:14.847Z,9.60
2023-04-15T13:36:43.068Z,9.60
2023-04-15T13:39:11.102Z,9.50
2023-04-15T13:41:39.329Z,9.40
2023-04-15T13:44:07.760Z,9.40
2023-04-15T13:46:35.951Z,9.40
2023-04-15T13:49:03.981Z,9.40
2023-04-15T13:51:33.158Z,9.40
2023-04-15T13:54:01.231Z,9.50
2023-04-15T13:56:29.274Z,9.50
2023-04-15T13:59:03.198Z,9.40
2023-04-15T14:01:31.407Z,9.40
2023-04-15T14:03:59.666Z,9.40
2023-04-15T14:06:28.706Z,9.40
2023-04-15T14:08:56.866Z,9.40
2023-04-15T14:11:27.714Z,9.40
2023-04-15T14:13:55.801Z,9.40
2023-04-15T14:16:23.987Z,9.40
2023-04-15T14:18:52.176Z,9.40
2023-04-15T14:21:20.719Z,9.40
2023-04-15T14:23:49.376Z,9.40
2023-04-15T14:26:20.759Z,9.30
2023-04-15T14:28:49.886Z,9.30
2023-04-15T14:31:18.130Z,9.30
2023-04-15T14:33:46.829Z,9.40
2023-04-15T14:36:17.210Z,9.40
2023-04-15T14:41:14.628Z,9.30
2023-04-15T14:43:44.944Z,9.30
2023-04-15T14:46:13.205Z,9.30
2023-04-15T14:48:41.351Z,9.30
2023-04-15T14:51:09.528Z,9.30
2023-04-15T14:53:37.618Z,9.20
2023-04-15T14:56:05.793Z,9.20
2023-04-15T14:58:34.541Z,9.20
2023-04-15T15:01:03.977Z,9.20
2023-04-15T15:03:32.368Z,9.20
2023-04-15T15:06:00.457Z,9.20
2023-04-15T15:08:28.631Z,9.20
2023-04-15T15:10:56.861Z,9.20
2023-04-15T15:13:24.944Z,9.20
2023-04-15T15:15:53.027Z,9.10
2023-04-15T15:18:21.233Z,9.10
2023-04-15T15:20:49.358Z,9.00
2023-04-15T15:23:17.484Z,9.00
2023-04-15T15:25:45.889Z,9.10
2023-04-15T15:28:13.946Z,9.10
2023-04-15T15:30:42.019Z,9.00
2023-04-15T15:33:10.058Z,9.00
2023-04-15T15:35:38.149Z,9.00
2023-04-15T15:38:06.250Z,8.90
2023-04-15T15:40:34.285Z,9.00
2023-04-15T15:43:02.288Z,8.80
2023-04-15T15:45:30.350Z,8.80
2023-04-15T15:47:59.646Z,8.80
2023-04-15T15:50:27.715Z,8.80
2023-04-15T15:52:56.428Z,8.80
2023-04-15T15:55:26.525Z,8.80
2023-04-15T15:57:55.558Z,8.80
2023-04-15T16:00:24.523Z,8.70
2023-04-15T16:03:06.888Z,8.60
2023-04-15T16:05:36.713Z,8.60
2023-04-15T16:08:04.894Z,8.70
2023-04-15T16:10:33.137Z,8.70
2023-04-15T16:13:01.266Z,8.70
2023-04-15T16:15:31.589Z,8.60
2023-04-15T16:17:59.761Z,8.70
2023-04-15T16:20:30.186Z,8.70
2023-04-15T16:23:01.978Z,8.70
2023-04-15T16:25:30.160Z,8.70
2023-04-15T16:28:05.492Z,8.60
2023-04-15T16:30:40.941Z,8.60
2023-04-15T16:33:09.441Z,8.70
2023-04-15T16:35:37.725Z,8.70
2023-04-15T16:38:05.929Z,8.70
2023-04-15T16:40:38.554Z,8.60
2023-04-15T16:43:13.822Z,8.60
2023-04-15T16:45:44.175Z,8.70
2023-04-15T16:48:14.103Z,8.70
2023-04-15T16:50:42.968Z,8.70
2023-04-15T16:53:12.107Z,8.80
2023-04-15T16:55:40.938Z,8.80
2023-04-15T16:58:09.032Z,8.80
2023-04-15T17:00:40.956Z,8.80
2023-04-15T17:03:12.900Z,8.80
2023-04-15T17:05:41.249Z,8.80
2023-04-15T17:08:12.154Z,8.80
2023-04-15T17:10:40.189Z,8.70
2023-04-15T17:13:08.805Z,8.80
2023-04-15T17:15:42.699Z,8.70
2023-04-15T17:18:12.088Z,8.80
2023-04-15T17:20:40.320Z,8.70
2023-04-15T17:23:08.384Z,8.70
2023-04-15T17:25:36.459Z,8.70
2023-04-15T17:28:04.509Z,8.60
2023-04-15T17:30:33.650Z,8.60
2023-04-15T17:33:02.166Z,8.60
2023-04-15T17:35:30.293Z,8.60
2023-04-15T17:37:58.433Z,8.70
2023-04-15T17:40:26.583Z,8.60
2023-04-15T17:42:54.978Z,8.60
2023-04-15T17:45:22.968Z,8.60
2023-04-15T17:47:52.186Z,8.60
2023-04-15T17:50:20.258Z,8.60
2023-04-15T17:52:49.687Z,8.60
2023-04-15T17:55:17.912Z,8.60
2023-04-15T17:57:46.604Z,8.60
2023-04-15T18:00:15.007Z,8.60
2023-04-15T18:02:43.299Z,8.60
2023-04-15T18:05:11.900Z,8.50
2023-04-15T18:07:40.082Z,8.50
2023-04-15T18:10:09.661Z,8.50
2023-04-15T18:12:37.693Z,8.50
2023-04-15T18:15:05.881Z,8.50
2023-04-15T18:17:33.906Z,8.50
2023-04-15T18:20:02.044Z,8.40
2023-04-15T18:22:30.074Z,8.40
2023-04-15T18:25:00.324Z,8.40
2023-04-15T18:27:28.689Z,8.40
2023-04-15T18:29:56.673Z,8.40
2023-04-15T18:32:24.714Z,8.40
2023-04-15T18:34:52.773Z,8.40
2023-04-15T18:37:20.945Z,8.50
2023-04-15T18:39:49.025Z,8.50
2023-04-15T18:42:17.333Z,8.50
2023-04-15T18:44:45.347Z,8.40
2023-04-15T18:47:13.382Z,8.40
2023-04-15T18:49:42.788Z,8.50
2023-04-15T18:52:11.251Z,8.40
2023-04-15T18:54:39.340Z,8.40
2023-04-15T18:57:07.770Z,8.40
2023-04-15T18:59:38.617Z,8.40
2023-04-15T19:02:11.039Z,8.40
2023-04-15T19:04:39.197Z,8.30
2023-04-15T19:07:07.381Z,8.40
2023-04-15T19:09:35.675Z,8.30
2023-04-15T19:12:04.466Z,8.20
2023-04-15T19:14:32.493Z,8.20
2023-04-15T19:17:00.667Z,8.20
2023-04-15T19:19:31.208Z,8.20
2023-04-15T19:22:01.614Z,8.20
2023-04-15T19:24:31.686Z,8.20
2023-04-15T19:27:01.013Z,8.20
2023-04-15T19:29:30.062Z,8.20
2023-04-15T19:31:58.121Z,8.20
2023-04-15T19:34:26.405Z,8.20
2023-04-15T19:36:54.606Z,8.20
2023-04-15T19:39:22.666Z,8.20
2023-04-15T19:41:51.798Z,8.20
2023-04-15T19:44:21.097Z,8.20
2023-04-15T19:46:51.278Z,8.20
2023-04-15T19:49:19.894Z,8.20
2023-04-15T19:51:49.457Z,8.20
2023-04-15T19:54:17.561Z,8.20
2023-04-15T19:56:45.604Z,8.10
2023-04-15T19:59:14.093Z,8.10
2023-04-15T20:01:42.234Z,8.00
2023-04-15T20:04:10.484Z,8.00
2023-04-15T20:06:38.600Z,8.00
2023-04-15T20:09:07.361Z,8.00
2023-04-15T20:12:47.736Z,8.00
2023-04-15T20:14:29.120Z,8.00
2023-04-15T20:16:57.470Z,8.00
2023-04-15T20:19:26.412Z,8.00
2023-04-15T20:21:55.340Z,8.10
2023-04-15T20:24:25.533Z,8.10
2023-04-15T20:26:53.622Z,8.10
2023-04-15T20:29:21.793Z,8.10
2023-04-15T20:31:50.060Z,8.10
2023-04-15T20:34:18.163Z,8.10
2023-04-15T20:36:46.396Z,8.10
2023-04-15T20:39:14.540Z,8.10
2023-04-15T20:41:42.872Z,8.10
2023-04-15T20:44:10.910Z,8.10
2023-04-15T20:46:39.097Z,8.00
2023-04-15T20:49:07.414Z,8.10
2023-04-15T20:51:38.893Z,8.10
2023-04-15T20:54:07.484Z,8.00
2023-04-15T20:56:35.639Z,8.00
2023-04-15T20:59:04.008Z,8.00
2023-04-15T21:01:32.237Z,8.00
2023-04-15T21:04:00.491Z,8.00
2023-04-15T21:06:28.963Z,8.00
2023-04-15T21:08:57.052Z,8.00
2023-04-15T21:11:43.144Z,8.00
2023-04-15T21:14:13.619Z,8.00
2023-04-15T21:16:42.016Z,8.00
2023-04-15T21:19:10.620Z,8.10
2023-04-15T21:21:38.691Z,8.00
2023-04-15T21:24:08.933Z,8.00
2023-04-15T21:26:42.959Z,8.00
2023-04-15T21:29:14.061Z,8.00
2023-04-15T21:31:42.707Z,8.00
2023-04-15T21:34:11.072Z,8.00
2023-04-15T21:36:39.312Z,8.00
2023-04-15T21:39:07.631Z,8.00
2023-04-15T21:41:38.107Z,8.00
2023-04-15T21:44:06.281Z,8.00
2023-04-15T21:46:35.854Z,8.00
2023-04-15T21:49:05.013Z,8.00
2023-04-15T21:51:33.971Z,8.10
2023-04-15T21:54:02.128Z,8.10
2023-04-15T21:56:30.276Z,8.00
2023-04-15T21:58:58.656Z,8.10
2023-04-15T22:01:26.836Z,8.10
2023-04-15T22:03:55.211Z,8.00
2023-04-15T22:06:23.540Z,8.00
2023-04-15T22:08:57.456Z,8.00
2023-04-15T22:11:29.444Z,8.00
2023-04-15T22:13:58.528Z,8.10
2023-04-15T22:16:27.221Z,8.10
2023-04-15T22:18:55.991Z,8.10
2023-04-15T22:21:24.247Z,8.10
2023-04-15T22:23:52.576Z,8.10
2023-04-15T22:26:21.160Z,8.00
2023-04-15T22:28:49.377Z,8.00
2023-04-15T22:31:17.537Z,8.00
2023-04-15T22:33:45.618Z,8.00
2023-04-15T22:36:14.801Z,8.00
2023-04-15T22:38:42.838Z,8.10
2023-04-15T22:41:10.888Z,8.00
2023-04-15T22:43:38.921Z,8.00
2023-04-15T22:46:06.982Z,7.90
2023-04-15T22:48:35.627Z,8.00
2023-04-15T22:51:05.009Z,8.00
2023-04-15T22:53:33.186Z,8.10
2023-04-15T22:56:01.223Z,8.00
2023-04-15T22:58:29.304Z,8.00
2023-04-15T23:01:01.283Z,8.10
2023-04-15T23:03:33.005Z,8.10
2023-04-15T23:06:20.904Z,8.10
2023-04-15T23:08:49.212Z,8.10
2023-04-15T23:11:17.537Z,8.10
2023-04-15T23:13:45.601Z,8.10
2023-04-15T23:16:13.682Z,8.10
2023-04-15T23:18:41.746Z,8.10
2023-04-15T23:21:09.750Z,8.10
2023-04-15T23:23:37.824Z,8.10
2023-04-15T23:26:06.064Z,8.10
2023-04-15T23:28:34.066Z,8.10
2023-04-15T23:31:02.344Z,8.00
2023-04-15T23:33:30.395Z,8.10
2023-04-15T23:35:58.616Z,8.10
2023-04-15T23:38:26.596Z,8.00
2023-04-15T23:40:54.595Z,8.00
2023-04-15T23:43:22.667Z,8.00
2023-04-15T23:45:50.717Z,8.00
2023-04-15T23:48:19.401Z,8.00
2023-04-15T23:50:47.466Z,7.90
2023-04-15T23:53:15.466Z,7.90
2023-04-15T23:55:43.514Z,7.90
2023-04-15T23:58:11.569Z,7.90
